createdAt,value
2018-04-17T00:00:48.289Z,73.42
2018-04-17T00:03:15.782Z,73.54
2018-04-17T00:05:43.285Z,73.64
2018-04-17T00:08:10.770Z,73.70
2018-04-17T00:10:39.903Z,73.70
2018-04-17T00:13:08.055Z,73.77
2018-04-17T00:15:36.671Z,73.84
2018-04-17T00:18:05.519Z,73.83
2018-04-17T00:20:33.014Z,73.80
2018-04-17T00:23:00.494Z,73.86
2018-04-17T00:25:28.014Z,73.91
2018-04-17T00:27:56.658Z,73.96
2018-04-17T00:30:27.121Z,74.00
2018-04-17T00:32:55.821Z,73.98
2018-04-17T00:35:24.466Z,74.02
2018-04-17T00:37:51.980Z,74.02
2018-04-17T00:40:19.488Z,74.07
2018-04-17T00:42:46.973Z,74.10
2018-04-17T00:45:18.864Z,74.22
2018-04-17T00:47:50.881Z,74.18
2018-04-17T00:50:22.749Z,74.22
2018-04-17T00:52:54.619Z,74.30
2018-04-17T00:55:22.107Z,74.33
2018-04-17T00:57:49.565Z,74.31
2018-04-17T01:00:17.077Z,74.37
2018-04-17T01:02:44.581Z,74.45
2018-04-17T01:05:12.063Z,74.45
2018-04-17T01:07:51.996Z,74.42
2018-04-17T01:10:20.236Z,74.40
2018-04-17T01:12:47.726Z,74.39
2018-04-17T01:15:15.239Z,74.40
2018-04-17T01:17:42.738Z,74.41
2018-04-17T01:20:11.190Z,74.43
2018-04-17T01:22:39.794Z,74.52
2018-04-17T01:25:08.614Z,74.60
2018-04-17T01:30:07.982Z,74.74
2018-04-17T01:32:35.474Z,74.88
2018-04-17T01:35:02.946Z,75.02
2018-04-17T01:37:36.465Z,75.04
2018-04-17T01:40:06.818Z,75.11
2018-04-17T01:42:38.459Z,75.10
2018-04-17T01:45:10.263Z,75.17
2018-04-17T01:47:37.749Z,75.19
2018-04-17T01:50:05.250Z,75.29
2018-04-17T01:52:32.758Z,75.31
2018-04-17T01:55:00.487Z,75.32
2018-04-17T02:00:03.475Z,75.37
2018-04-17T02:02:36.298Z,75.38
2018-04-17T02:05:03.818Z,75.29
2018-04-17T02:07:31.284Z,75.30
2018-04-17T02:09:58.778Z,75.20
2018-04-17T02:12:27.590Z,75.01
2018-04-17T02:15:00.523Z,74.91
2018-04-17T02:17:30.725Z,74.92
2018-04-17T02:20:02.850Z,74.83
2018-04-17T02:22:30.350Z,74.71
2018-04-17T02:24:57.846Z,74.70
2018-04-17T02:27:25.367Z,74.60
2018-04-17T02:29:54.174Z,74.54
2018-04-17T02:35:34.156Z,74.39
2018-04-17T02:38:01.662Z,74.29
2018-04-17T02:40:29.223Z,74.06
2018-04-17T02:42:56.743Z,73.86
2018-04-17T02:45:24.280Z,73.75
2018-04-17T02:47:55.551Z,73.67
2018-04-17T02:50:39.094Z,73.65
2018-04-17T02:53:18.012Z,73.42
2018-04-17T02:55:47.814Z,73.30
2018-04-17T02:58:15.352Z,73.18
2018-04-17T03:00:42.866Z,72.93
2018-04-17T03:03:10.459Z,72.82
2018-04-17T03:05:51.203Z,72.82
2018-04-17T03:14:03.225Z,72.25
2018-04-17T03:16:30.760Z,72.25
2018-04-17T03:18:58.376Z,72.09
2018-04-17T03:21:30.485Z,71.95
2018-04-17T03:30:04.947Z,71.84
2018-04-17T03:32:33.335Z,71.53
2018-04-17T03:35:00.902Z,71.21
2018-04-17T03:37:28.535Z,71.16
2018-04-17T03:40:18.380Z,71.15
2018-04-17T03:45:35.070Z,70.76
2018-04-17T03:48:02.608Z,70.78
2018-04-17T03:50:30.110Z,70.43
2018-04-17T03:52:57.590Z,70.25
2018-04-17T03:55:25.696Z,69.97
2018-04-17T04:04:25.538Z,69.60
2018-04-17T04:06:53.068Z,69.38
2018-04-17T04:09:20.575Z,69.28
2018-04-17T04:11:48.192Z,69.08
2018-04-17T04:21:50.674Z,68.49
2018-04-17T04:24:30.151Z,68.30
2018-04-17T04:26:57.699Z,68.12
2018-04-17T04:29:25.314Z,68.02
2018-04-17T04:34:49.173Z,67.75
2018-04-17T04:37:26.525Z,67.61
2018-04-17T04:39:54.083Z,67.54
2018-04-17T04:42:21.627Z,67.56
2018-04-17T04:44:49.149Z,67.38
2018-04-17T04:56:03.815Z,66.96
2018-04-17T04:58:31.331Z,66.95
2018-04-17T05:00:58.871Z,67.07
2018-04-17T05:03:26.516Z,66.98
2018-04-17T05:10:34.927Z,66.94
2018-04-17T05:15:50.731Z,68.30
2018-04-17T05:18:21.297Z,69.06
2018-04-17T05:20:48.835Z,69.73
2018-04-17T05:33:53.778Z,71.68
2018-04-17T05:36:21.295Z,71.98
2018-04-17T05:38:48.878Z,72.30
2018-04-17T05:41:42.873Z,72.58
2018-04-17T05:47:32.043Z,72.92
2018-04-17T05:49:59.572Z,73.14
2018-04-17T05:52:27.176Z,73.26
2018-04-17T05:54:54.967Z,73.19
2018-04-17T05:57:22.627Z,73.57
2018-04-17T05:59:51.167Z,73.86
2018-04-17T06:02:27.117Z,73.97
2018-04-17T06:07:44.221Z,74.66
2018-04-17T06:10:11.740Z,75.11
2018-04-17T06:12:39.301Z,75.54
2018-04-17T06:20:17.066Z,76.29
2018-04-17T06:25:25.798Z,76.99
2018-04-17T06:27:53.307Z,77.55
2018-04-17T06:30:20.799Z,78.03
2018-04-17T06:32:51.155Z,78.34
2018-04-17T06:35:25.095Z,78.77
2018-04-17T06:37:52.658Z,78.92
2018-04-17T06:42:53.721Z,80.12
2018-04-17T06:45:21.247Z,80.19
2018-04-17T06:47:48.751Z,80.23
2018-04-17T06:50:16.328Z,80.72
2018-04-17T06:52:47.424Z,80.90
2018-04-17T06:58:44.790Z,81.80
2018-04-17T07:01:12.308Z,82.23
2018-04-17T07:03:39.794Z,82.46
2018-04-17T07:06:07.287Z,83.14
2018-04-17T07:13:47.846Z,83.92
2018-04-17T07:16:15.454Z,84.10
2018-04-17T07:18:42.942Z,84.32
2018-04-17T07:21:10.567Z,84.42
2018-04-17T07:23:38.067Z,84.44
2018-04-17T07:26:07.238Z,84.51
2018-04-17T07:28:34.770Z,84.60
2018-04-17T07:31:06.332Z,84.44
2018-04-17T07:33:33.826Z,84.61
2018-04-17T07:36:01.331Z,84.55
2018-04-17T07:38:28.923Z,84.66
2018-04-17T07:40:56.550Z,84.59
2018-04-17T07:43:43.244Z,84.65
2018-04-17T07:46:20.093Z,84.72
2018-04-17T07:48:54.647Z,84.93
2018-04-17T07:51:22.130Z,85.16
2018-04-17T07:53:49.660Z,85.66
2018-04-17T07:56:17.202Z,85.64
2018-04-17T07:58:45.455Z,86.05
2018-04-17T08:01:13.070Z,86.32
2018-04-17T08:03:43.124Z,86.83
2018-04-17T08:06:12.623Z,86.92
2018-04-17T08:08:40.121Z,87.14
2018-04-17T08:11:07.654Z,87.21
2018-04-17T08:13:35.231Z,87.36
2018-04-17T08:16:02.830Z,87.71
2018-04-17T08:24:27.584Z,88.25
2018-04-17T08:26:55.164Z,88.45
2018-04-17T08:29:22.692Z,88.68
2018-04-17T08:31:50.338Z,88.71
2018-04-17T08:43:02.561Z,89.36
2018-04-17T08:45:30.125Z,89.42
2018-04-17T08:47:58.506Z,89.43
2018-04-17T08:59:32.366Z,89.37
2018-04-17T09:02:00.039Z,89.20
2018-04-17T09:04:27.699Z,89.07
2018-04-17T09:06:56.600Z,89.03
2018-04-17T09:18:33.287Z,88.46
2018-04-17T09:21:02.777Z,88.37
2018-04-17T09:23:30.353Z,88.22
2018-04-17T09:35:18.156Z,87.48
2018-04-17T09:37:46.762Z,87.40
2018-04-17T09:40:14.349Z,87.34
2018-04-17T09:51:51.972Z,87.23
2018-04-17T09:54:19.551Z,87.26
2018-04-17T09:56:47.165Z,87.43
2018-04-17T10:08:23.647Z,88.01
2018-04-17T10:10:51.252Z,88.03
2018-04-17T10:13:18.835Z,87.98
2018-04-17T10:24:56.771Z,88.16
2018-04-17T10:27:24.381Z,88.18
2018-04-17T10:29:52.063Z,88.06
2018-04-17T10:41:46.477Z,88.05
2018-04-17T10:44:14.059Z,88.01
2018-04-17T10:46:41.703Z,87.96
2018-04-17T10:49:12.273Z,87.88
2018-04-17T11:00:49.071Z,87.76
2018-04-17T11:03:16.663Z,87.75
2018-04-17T11:05:44.229Z,87.75
2018-04-17T11:17:20.649Z,87.62
2018-04-17T11:19:48.232Z,87.60
2018-04-17T11:22:15.871Z,87.62
2018-04-17T11:36:40.406Z,88.12
2018-04-17T11:39:15.154Z,88.27
2018-04-17T12:09:21.548Z,87.85
2018-04-17T13:02:14.211Z,87.99
2018-04-17T14:26:37.385Z,87.51
2018-04-17T15:50:28.992Z,87.41
2018-04-17T15:52:58.250Z,87.37
2018-04-17T15:55:28.326Z,87.40
2018-04-17T16:10:27.461Z,87.09
2018-04-17T16:12:55.153Z,87.06
2018-04-17T16:24:30.941Z,86.95
2018-04-17T16:26:58.649Z,86.96
2018-04-17T16:29:26.359Z,86.68
2018-04-17T16:58:55.677Z,86.35
2018-04-17T20:58:03.291Z,90.22
2018-04-17T21:00:30.843Z,90.22
2018-04-17T21:02:59.447Z,90.14
2018-04-17T21:05:32.144Z,90.13
2018-04-17T21:08:12.385Z,90.11
2018-04-17T21:10:41.113Z,90.05
2018-04-17T21:13:08.804Z,90.04
2018-04-17T21:15:36.339Z,90.11
2018-04-17T21:18:04.015Z,90.15
2018-04-17T21:20:31.640Z,90.09
2018-04-17T21:26:01.958Z,90.15
2018-04-17T21:28:31.377Z,90.17
2018-04-17T21:30:58.963Z,90.12
2018-04-17T21:33:26.507Z,90.09
2018-04-17T21:35:54.079Z,90.15
2018-04-17T21:38:21.667Z,90.12
2018-04-17T21:43:28.717Z,90.10
2018-04-17T21:48:30.576Z,90.10
2018-04-17T21:50:58.206Z,90.08
2018-04-17T21:53:25.756Z,90.08
2018-04-17T21:55:53.704Z,90.07
2018-04-17T21:58:23.213Z,90.09
2018-04-17T22:00:53.290Z,90.09
2018-04-17T22:06:33.007Z,90.08
2018-04-17T22:09:00.556Z,90.10
2018-04-17T22:11:28.169Z,90.09
2018-04-17T22:13:59.178Z,90.18
2018-04-17T22:16:31.156Z,90.23
2018-04-17T22:21:36.095Z,90.28
2018-04-17T22:24:03.711Z,90.38
2018-04-17T22:26:32.373Z,90.46
2018-04-17T22:28:59.929Z,90.51
2018-04-17T22:31:36.129Z,90.53
2018-04-17T22:37:17.084Z,90.57
2018-04-17T22:39:44.654Z,90.57
2018-04-17T22:42:12.183Z,90.69
2018-04-17T22:44:39.770Z,90.81
2018-04-17T22:47:07.436Z,90.75
2018-04-17T22:49:39.016Z,90.77
2018-04-17T22:52:11.066Z,90.75
2018-04-17T22:54:43.372Z,90.78
2018-04-17T22:57:11.075Z,90.78
2018-04-17T22:59:38.643Z,90.83
2018-04-17T23:02:06.217Z,90.92
2018-04-17T23:04:33.751Z,90.92
2018-04-17T23:15:47.829Z,91.16
2018-04-17T23:18:15.501Z,91.10
2018-04-17T23:20:43.078Z,91.24
2018-04-17T23:31:12.247Z,91.28
2018-04-17T23:33:39.907Z,91.24
2018-04-17T23:36:07.455Z,91.23
2018-04-17T23:38:35.032Z,91.20
2018-04-17T23:43:56.369Z,91.15
2018-04-17T23:49:12.058Z,91.17
2018-04-17T23:51:39.623Z,91.16
2018-04-17T23:54:07.205Z,91.22
2018-04-17T23:56:35.813Z,91.30
